createdAt,value
2023-03-22T00:00:35.391Z,94385.00
2023-03-22T00:04:35.370Z,94377.00
2023-03-22T00:08:35.392Z,94373.00
2023-03-22T00:12:35.401Z,94377.00
2023-03-22T00:16:35.411Z,94373.00
2023-03-22T00:20:35.360Z,94375.00
2023-03-22T00:24:35.334Z,94377.00
2023-03-22T00:28:35.386Z,94373.00
2023-03-22T00:32:35.359Z,94373.00
2023-03-22T00:36:35.340Z,94373.00
2023-03-22T00:40:35.346Z,94371.00
2023-03-22T00:44:35.339Z,94371.00
2023-03-22T00:48:35.354Z,94363.00
2023-03-22T00:52:35.356Z,94361.00
2023-03-22T00:56:35.346Z,94361.00
2023-03-22T01:00:35.346Z,94357.00
2023-03-22T01:04:35.388Z,94357.00
2023-03-22T01:08:35.447Z,94352.00
2023-03-22T01:12:35.360Z,94352.00
2023-03-22T01:16:35.394Z,94346.00
2023-03-22T01:20:35.368Z,94342.00
2023-03-22T01:24:35.391Z,94338.00
2023-03-22T01:28:35.383Z,94338.00
2023-03-22T01:32:35.413Z,94340.00
2023-03-22T01:36:35.395Z,94340.00
2023-03-22T01:40:35.425Z,94336.00
2023-03-22T01:44:35.394Z,94332.00
2023-03-22T01:48:35.436Z,94330.00
2023-03-22T01:52:35.488Z,94336.00
2023-03-22T01:56:35.463Z,94332.00
2023-03-22T02:00:35.476Z,94330.00
2023-03-22T02:04:35.522Z,94336.00
2023-03-22T02:08:35.532Z,94334.00
2023-03-22T02:12:35.508Z,94340.00
2023-03-22T02:16:35.506Z,94348.00
2023-03-22T02:20:35.483Z,94357.00
2023-03-22T02:24:35.476Z,94350.00
2023-03-22T02:28:35.508Z,94352.00
2023-03-22T02:32:35.462Z,94354.00
2023-03-22T02:36:35.486Z,94357.00
2023-03-22T02:40:35.474Z,94355.00
2023-03-22T02:44:35.480Z,94346.00
2023-03-22T02:48:35.455Z,94348.00
2023-03-22T02:52:35.480Z,94350.00
2023-03-22T02:56:35.492Z,94350.00
2023-03-22T03:00:35.508Z,94350.00
2023-03-22T03:04:35.541Z,94342.00
2023-03-22T03:08:35.530Z,94344.00
2023-03-22T03:12:35.555Z,94342.00
2023-03-22T03:16:35.719Z,94336.00
2023-03-22T03:20:35.560Z,94330.00
2023-03-22T03:24:35.595Z,94334.00
2023-03-22T03:28:35.586Z,94332.00
2023-03-22T03:32:35.587Z,94336.00
2023-03-22T03:36:35.603Z,94338.00
2023-03-22T03:40:35.636Z,94336.00
2023-03-22T03:44:35.621Z,94334.00
2023-03-22T03:48:35.634Z,94334.00
2023-03-22T03:52:35.669Z,94330.00
2023-03-22T03:56:35.678Z,94328.00
2023-03-22T04:00:35.694Z,94324.00
2023-03-22T04:04:35.759Z,94320.00
2023-03-22T04:08:35.705Z,94324.00
2023-03-22T04:12:35.727Z,94318.00
2023-03-22T04:16:35.696Z,94318.00
2023-03-22T04:20:35.760Z,94324.00
2023-03-22T04:24:35.684Z,94322.00
2023-03-22T04:28:35.660Z,94320.00
2023-03-22T04:32:35.673Z,94324.00
2023-03-22T04:36:35.663Z,94326.00
2023-03-22T04:40:35.666Z,94326.00
2023-03-22T04:44:35.680Z,94324.00
2023-03-22T04:48:35.728Z,94320.00
2023-03-22T04:52:35.756Z,94320.00
2023-03-22T04:56:35.776Z,94320.00
2023-03-22T05:00:35.791Z,94326.00
2023-03-22T05:04:35.840Z,94328.00
2023-03-22T05:08:35.885Z,94334.00
2023-03-22T05:12:35.918Z,94332.00
2023-03-22T05:16:35.965Z,94334.00
2023-03-22T05:20:36.012Z,94336.00
2023-03-22T05:24:36.052Z,94344.00
2023-03-22T05:28:36.071Z,94344.00
2023-03-22T05:32:36.129Z,94342.00
2023-03-22T05:36:36.161Z,94344.00
2023-03-22T05:40:36.216Z,94344.00
2023-03-22T05:44:36.237Z,94342.00
2023-03-22T05:48:36.299Z,94346.00
2023-03-22T05:52:36.323Z,94348.00
2023-03-22T05:56:36.393Z,94352.00
2023-03-22T06:00:36.334Z,94350.00
2023-03-22T06:04:36.357Z,94350.00
2023-03-22T06:08:36.522Z,94346.00
2023-03-22T06:12:36.471Z,94348.00
2023-03-22T06:16:36.450Z,94352.00
2023-03-22T06:20:36.401Z,94355.00
2023-03-22T06:24:36.389Z,94361.00
2023-03-22T06:28:36.342Z,94359.00
2023-03-22T06:32:36.357Z,94357.00
2023-03-22T06:36:36.245Z,94363.00
2023-03-22T06:40:36.278Z,94355.00
2023-03-22T06:44:36.271Z,94355.00
2023-03-22T06:48:36.185Z,94354.00
2023-03-22T06:52:36.106Z,94355.00
2023-03-22T06:56:36.078Z,94354.00
2023-03-22T07:00:36.213Z,94352.00
2023-03-22T07:04:36.504Z,94344.00
2023-03-22T07:08:36.649Z,94352.00
2023-03-22T07:12:36.791Z,94355.00
2023-03-22T07:16:36.863Z,94357.00
2023-03-22T07:20:37.039Z,94354.00
2023-03-22T07:24:44.575Z,94357.00
2023-03-22T07:28:37.943Z,94357.00
2023-03-22T07:32:36.975Z,94352.00
2023-03-22T07:36:37.101Z,94346.00
2023-03-22T07:40:37.458Z,94346.00
2023-03-22T07:44:37.345Z,94344.00
2023-03-22T07:48:37.429Z,94338.00
2023-03-22T07:52:37.680Z,94328.00
2023-03-22T07:56:37.608Z,94328.00
2023-03-22T08:00:38.123Z,94328.00
2023-03-22T08:04:37.552Z,94328.00
2023-03-22T08:08:37.499Z,94332.00
2023-03-22T08:12:37.472Z,94328.00
2023-03-22T08:16:37.539Z,94330.00
2023-03-22T08:20:37.705Z,94326.00
2023-03-22T08:24:37.379Z,94326.00
2023-03-22T08:28:37.542Z,94324.00
2023-03-22T08:32:37.844Z,94322.00
2023-03-22T08:36:37.352Z,94314.00
2023-03-22T08:40:37.878Z,94308.00
2023-03-22T08:44:37.367Z,94305.00
2023-03-22T08:48:37.503Z,94297.00
2023-03-22T08:52:37.605Z,94289.00
2023-03-22T08:56:37.745Z,94281.00
2023-03-22T09:00:48.191Z,94279.00
2023-03-22T09:04:38.878Z,94271.00
2023-03-22T09:08:37.831Z,94267.00
2023-03-22T09:12:38.441Z,94261.00
2023-03-22T09:16:38.463Z,94256.00
2023-03-22T09:20:38.565Z,94252.00
2023-03-22T09:24:38.330Z,94244.00
2023-03-22T09:28:38.582Z,94234.00
2023-03-22T09:32:38.617Z,94228.00
2023-03-22T09:36:38.812Z,94218.00
2023-03-22T09:40:39.361Z,94214.00
2023-03-22T09:44:39.196Z,94213.00
2023-03-22T09:48:39.853Z,94209.00
2023-03-22T09:52:39.557Z,94205.00
2023-03-22T09:56:39.893Z,94195.00
2023-03-22T10:00:39.836Z,94187.00
2023-03-22T10:04:39.878Z,94181.00
2023-03-22T10:08:39.789Z,94175.00
2023-03-22T10:12:39.793Z,94169.00
2023-03-22T10:16:39.799Z,94161.00
2023-03-22T10:20:39.787Z,94150.00
2023-03-22T10:24:40.877Z,94146.00
2023-03-22T10:28:40.056Z,94140.00
2023-03-22T10:32:54.760Z,94140.00
2023-03-22T10:36:41.037Z,94134.00
2023-03-22T10:40:39.941Z,94132.00
2023-03-22T10:44:40.375Z,94128.00
2023-03-22T10:48:40.017Z,94120.00
2023-03-22T10:52:40.189Z,94118.00
2023-03-22T10:56:40.474Z,94111.00
2023-03-22T11:00:42.332Z,94101.00
2023-03-22T11:04:40.341Z,94097.00
2023-03-22T11:08:40.301Z,94085.00
2023-03-22T11:12:40.429Z,94079.00
2023-03-22T11:16:40.238Z,94075.00
2023-03-22T11:20:40.643Z,94067.00
2023-03-22T11:24:40.149Z,94064.00
2023-03-22T11:28:40.152Z,94056.00
2023-03-22T11:32:40.158Z,94052.00
2023-03-22T11:36:40.042Z,94040.00
2023-03-22T11:40:40.334Z,94032.00
2023-03-22T11:44:39.983Z,94024.00
2023-03-22T11:48:40.027Z,94015.00
2023-03-22T11:52:39.937Z,94011.00
2023-03-22T11:56:39.863Z,94011.00
2023-03-22T12:00:39.831Z,94003.00
2023-03-22T12:04:39.878Z,93997.00
2023-03-22T12:08:39.910Z,93993.00
2023-03-22T12:12:39.740Z,93987.00
2023-03-22T12:16:39.970Z,93979.00
2023-03-22T12:20:40.131Z,93975.00
2023-03-22T12:24:40.798Z,93967.00
2023-03-22T12:28:39.778Z,93960.00
2023-03-22T12:32:39.817Z,93952.00
2023-03-22T12:36:39.880Z,93938.00
2023-03-22T12:40:40.363Z,93934.00
2023-03-22T12:44:40.070Z,93926.00
2023-03-22T12:48:40.240Z,93920.00
2023-03-22T12:52:45.733Z,93917.00
2023-03-22T12:56:41.224Z,93911.00
2023-03-22T13:00:40.437Z,93905.00
2023-03-22T13:04:40.194Z,93901.00
2023-03-22T13:08:40.510Z,93899.00
2023-03-22T13:12:40.454Z,93893.00
2023-03-22T13:16:40.469Z,93887.00
2023-03-22T13:20:40.821Z,93885.00
2023-03-22T13:24:40.425Z,93879.00
2023-03-22T13:28:40.542Z,93871.00
2023-03-22T13:32:40.652Z,93860.00
2023-03-22T13:36:40.748Z,93856.00
2023-03-22T13:40:40.983Z,93842.00
2023-03-22T13:44:40.949Z,93836.00
2023-03-22T13:48:41.155Z,93828.00
2023-03-22T13:52:41.149Z,93828.00
2023-03-22T13:56:41.277Z,93826.00
2023-03-22T14:00:41.620Z,93817.00
2023-03-22T14:04:41.441Z,93815.00
2023-03-22T14:08:41.539Z,93807.00
2023-03-22T14:12:41.636Z,93803.00
2023-03-22T14:16:41.757Z,93797.00
2023-03-22T14:20:41.941Z,93791.00
2023-03-22T14:49:43.435Z,93778.00
2023-03-22T14:53:43.699Z,93774.00
2023-03-22T14:57:43.696Z,93772.00
2023-03-22T15:01:43.352Z,93766.00
2023-03-22T15:05:43.675Z,93766.00
2023-03-22T15:09:43.282Z,93756.00
2023-03-22T15:13:43.213Z,93754.00
2023-03-22T15:17:43.232Z,93750.00
2023-03-22T15:21:43.156Z,93752.00
2023-03-22T15:25:43.145Z,93750.00
2023-03-22T15:29:43.105Z,93752.00
2023-03-22T15:33:43.055Z,93756.00
2023-03-22T15:37:43.010Z,93750.00
2023-03-22T15:41:43.421Z,93750.00
2023-03-22T15:45:43.365Z,93752.00
2023-03-22T15:49:43.364Z,93760.00
2023-03-22T15:53:43.553Z,93762.00
2023-03-22T15:57:43.714Z,93764.00
2023-03-22T16:01:43.879Z,93764.00
2023-03-22T16:05:44.091Z,93772.00
2023-03-22T16:09:44.254Z,93774.00
2023-03-22T16:13:44.474Z,93776.00
2023-03-22T16:17:44.634Z,93781.00
2023-03-22T16:21:44.833Z,93787.00
2023-03-22T16:25:45.234Z,93787.00
2023-03-22T16:29:45.203Z,93793.00
2023-03-22T16:33:45.377Z,93795.00
2023-03-22T16:37:45.531Z,93791.00
2023-03-22T16:41:45.681Z,93799.00
2023-03-22T16:45:45.879Z,93807.00
2023-03-22T16:49:46.001Z,93813.00
2023-03-22T16:53:46.147Z,93821.00
2023-03-22T16:57:46.319Z,93826.00
2023-03-22T17:01:46.543Z,93830.00
2023-03-22T17:05:46.663Z,93834.00
2023-03-22T17:09:46.817Z,93836.00
2023-03-22T17:13:47.034Z,93836.00
2023-03-22T17:17:47.378Z,93840.00
2023-03-22T17:21:47.321Z,93850.00
2023-03-22T17:25:47.496Z,93854.00
2023-03-22T17:29:47.664Z,93871.00
2023-03-22T17:33:47.893Z,93873.00
2023-03-22T17:37:49.337Z,93877.00
2023-03-22T17:41:48.320Z,93885.00
2023-03-22T17:46:29.236Z,93891.00
2023-03-22T17:49:49.444Z,93899.00
2023-03-22T17:54:30.792Z,93905.00
2023-03-22T18:01:48.387Z,93918.00
2023-03-22T18:05:48.321Z,93926.00
2023-03-22T18:09:48.305Z,93936.00
2023-03-22T18:13:52.172Z,93944.00
2023-03-22T18:17:49.220Z,93950.00
2023-03-22T18:21:48.169Z,93954.00
2023-03-22T18:25:48.153Z,93962.00
2023-03-22T18:29:48.144Z,93965.00
2023-03-22T18:33:48.066Z,93977.00
2023-03-22T18:41:49.129Z,93993.00
2023-03-22T18:45:56.930Z,93999.00
2023-03-22T18:49:48.932Z,94001.00
2023-03-22T18:53:47.930Z,94007.00
2023-03-22T18:57:47.891Z,94009.00
2023-03-22T19:01:52.492Z,94011.00
2023-03-22T19:05:49.262Z,94009.00
2023-03-22T19:09:48.233Z,94011.00
2023-03-22T19:14:35.039Z,94011.00
2023-03-22T19:17:48.974Z,94011.00
2023-03-22T19:21:48.239Z,94017.00
2023-03-22T19:25:48.238Z,94017.00
2023-03-22T19:29:48.267Z,94019.00
2023-03-22T19:33:55.841Z,94024.00
2023-03-22T19:37:49.248Z,94022.00
2023-03-22T19:42:03.554Z,94024.00
2023-03-22T19:45:49.249Z,94026.00
2023-03-22T19:49:47.939Z,94028.00
2023-03-22T19:54:22.382Z,94022.00
2023-03-22T19:57:48.864Z,94024.00
2023-03-22T20:01:47.890Z,94026.00
2023-03-22T20:05:50.873Z,94034.00
2023-03-22T20:09:47.804Z,94038.00
2023-03-22T20:13:47.757Z,94040.00
2023-03-22T20:17:47.745Z,94046.00
2023-03-22T20:21:47.697Z,94054.00
2023-03-22T20:25:47.661Z,94056.00
2023-03-22T20:29:47.629Z,94062.00
2023-03-22T20:33:47.591Z,94067.00
2023-03-22T20:37:47.552Z,94066.00
2023-03-22T20:41:47.730Z,94066.00
2023-03-22T20:45:48.016Z,94067.00
2023-03-22T20:49:47.912Z,94069.00
2023-03-22T20:53:47.891Z,94073.00
2023-03-22T20:57:47.838Z,94073.00
2023-03-22T21:01:47.840Z,94077.00
2023-03-22T21:05:47.788Z,94077.00
2023-03-22T21:09:47.748Z,94083.00
2023-03-22T21:13:47.706Z,94089.00
2023-03-22T21:17:47.858Z,94095.00
2023-03-22T21:21:49.572Z,94097.00
2023-03-22T21:25:47.609Z,94095.00
2023-03-22T21:29:47.581Z,94099.00
2023-03-22T21:33:47.548Z,94105.00
2023-03-22T21:37:47.517Z,94103.00
2023-03-22T21:41:47.481Z,94103.00
2023-03-22T21:45:47.528Z,94101.00
2023-03-22T21:49:47.428Z,94101.00
2023-03-22T21:53:47.371Z,94103.00
2023-03-22T21:57:47.352Z,94109.00
2023-03-22T22:01:47.387Z,94113.00
2023-03-22T22:05:47.503Z,94114.00
2023-03-22T22:09:47.596Z,94130.00
2023-03-22T22:13:47.747Z,94130.00
2023-03-22T22:17:47.885Z,94132.00
2023-03-22T22:21:48.025Z,94132.00
2023-03-22T22:25:48.156Z,94132.00
2023-03-22T22:29:48.265Z,94132.00
2023-03-22T22:33:48.338Z,94130.00
2023-03-22T22:37:48.464Z,94132.00
2023-03-22T22:41:48.612Z,94120.00
2023-03-22T22:45:48.835Z,94132.00
2023-03-22T22:49:48.955Z,94132.00
2023-03-22T22:53:49.148Z,94128.00
2023-03-22T22:57:49.276Z,94120.00
2023-03-22T23:01:49.347Z,94116.00
2023-03-22T23:05:49.433Z,94113.00
2023-03-22T23:09:49.501Z,94118.00
2023-03-22T23:13:49.595Z,94118.00
2023-03-22T23:17:53.564Z,94116.00
2023-03-22T23:21:50.696Z,94120.00
2023-03-22T23:25:49.655Z,94130.00
2023-03-22T23:29:49.853Z,94120.00
2023-03-22T23:33:49.659Z,94118.00
2023-03-22T23:37:49.687Z,94116.00
2023-03-22T23:41:49.788Z,94128.00
2023-03-22T23:45:49.898Z,94128.00
2023-03-22T23:49:49.986Z,94130.00
2023-03-22T23:53:50.135Z,94130.00
2023-03-22T23:57:50.283Z,94120.00
